Weather observations for the past three days for
Jackson, McKellar-Sipes Regional Airport
Metric (Imperial)
Date Time (cdt) Wind (kph) Vis. (km) Weather Sky Cond. Temperature (ºC) Relative Humidity Wind Chill (°C) Heat Index (°C) Pressure Precipitation (cm)
Air Dwpt 6 hour altimeter (cm) sea level (mb) 1 hr 3 hr 6 hr
Max. Min.
09 14:53 N 13 16.09 Fair CLR 26.7 10 35% 26 75.84 1010.6
09 13:53 NW 13 16.09 Fair CLR 26.1 11.7 41% 26 75.87 1011.0
09 12:53 NW 9 16.09 Fair CLR 25 12.8 25.6 15 47% 26 75.87 1011.2
09 11:53 Calm 16.09 Fair CLR 24.4 13.9 52% 26 75.9 1011.5
09 10:53 Calm 16.09 Fair CLR 23.3 13.9 56% 75.87 1011.0
09 09:53 W 11 16.09 Fair CLR 21.1 14.4 66% 75.87 1011.0
09 08:53 W 11 16.09 Fair CLR 20 14.4 70% 75.84 1010.8
09 07:53 W 13 16.09 Fair CLR 17.2 13.9 81% 75.82 1010.7
09 06:53 SW 11 16.09 Fair CLR 15 12.8 15 13.3 87% 75.82 1010.4
09 05:53 SW 19 16.09 Fair CLR 13.9 12.2 90% 75.72 1009.1
09 04:53 S 15 16.09 Fair CLR 13.9 11.7 87% 75.72 1009.1
09 03:53 SW 13 16.09 Fair CLR 13.9 11.7 87% 75.74 1009.4
09 02:53 S 13 16.09 Fair CLR 14.4 11.7 84% 75.72 1009.2
09 01:53 SW 13 16.09 Fair CLR 15 11.1 78% 75.77 1009.8
09 00:53 S 11 16.09 Fair CLR 14.4 11.1 22.8 14.4 81% 75.82 1010.5
08 23:53 SW 11 16.09 Fair CLR 14.4 10.6 78% 75.84 1011.0
08 22:53 S 15 16.09 Fair CLR 16.1 10.6 70% 75.84 1010.7
08 21:53 S 11 16.09 Fair CLR 16.7 10.6 67% 75.84 1011.0
08 20:53 S 13 16.09 Fair CLR 18.3 10 59% 75.84 1010.8
08 19:53 S 9 16.09 Fair CLR 19.4 10 55% 75.82 1010.8
08 18:53 S 13 16.09 Fair CLR 22.8 10 24.4 22.2 44% 75.79 0.0
08 17:53 S 11 16.09 Fair CLR 23.9 9.4 40% 25 75.82 1010.8
08 16:53 S 17 G 30 16.09 Fair CLR 24.4 8.9 37% 25 75.87 1011.1
08 15:53 S 19 16.09 Fair CLR 24.4 10 40% 25 75.87 0.0
08 14:53 SE 9 16.09 Fair CLR 23.3 8.3 38% 75.95 0.0
08 13:53 SW 17 G 28 16.09 Fair CLR 22.8 8.3 40% 76.02 1013.2
08 12:53 S 13 16.09 Fair CLR 22.2 7.8 22.2 5 40% 76.1 1014.2
08 11:53 Vrbl 11 16.09 Fair CLR 21.1 6.7 39% 76.2 1015.6
08 10:53 S 9 16.09 Fair CLR 20 6.7 42% 76.25 0.0
08 09:53 S 13 16.09 Fair CLR 18.9 7.2 47% 76.28 0.0
08 08:53 Vrbl 7 16.09 Fair CLR 16.7 8.3 58% 76.33 1017.3
08 07:53 Calm 16.09 Fair CLR 7.2 6.1 93% 76.33 1017.6
08 06:53 Calm 16.09 Fair CLR 0 0 0% 76.3 0.0
08 05:53 Calm 0.00 NULL NULL 6.1 4.4 89% 76.25 1016.6
08 04:53 Calm 0.00 NULL NULL 6 0 0% 76.23 0.0
08 01:53 Calm 0.00 NULL NULL 8.3 7.2 93% 76.25 1016.5
08 00:53 Calm 16.09 Fair CLR 8.9 7.8 93% 76.28 1016.8
07 23:53 Calm 16.09 NULL NULL 8.9 7.8 93% 76.28 1016.9
07 20:53 Calm 0.00 Fair CLR 11.1 8.3 83% 76.23 1016.2
07 19:53 Calm 16.09 Fair CLR 13.9 8.3 69% 76.23 1015.9
07 18:42 Calm 16.09 Fair CLR 0 0 0% 76.2 0.0
07 17:53 NW 11 0.00 NULL NULL 19.4 6.1 42% 76.17 1015.4
07 15:53 N 11 16.09 Fair CLR 20.6 5.6 38% 76.2 1015.6
07 13:53 Vrbl 9 16.09 A Few Clouds FEW050 19.4 6.1 42% 76.25 1016.3
07 13:41 Calm 16.09 Fair CLR 19 7 46% 76.25 0.0
07 12:53 N 13 16.09 Fair CLR 19.4 6.1 19.4 10.6 42% 76.28 1016.7
07 11:53 NE 15 16.09 Fair CLR 18.3 5.6 43% 76.33 1017.4
07 10:53 NE 19 16.09 Fair CLR 17.8 6.1 46% 76.35 1017.8
07 09:53 NE 15 16.09 Fair CLR 16.1 8.3 60% 76.35 1017.8
07 08:53 NE 15 16.09 Fair CLR 14.4 8.9 70% 76.35 1017.7
07 07:53 NE 13 16.09 Fair CLR 12.2 8.9 80% 76.3 1017.3
07 06:53 N 13 16.09 Fair CLR 10.6 8.3 12.2 8.9 86% 76.28 0.0
07 05:53 N 9 16.09 Fair CLR 9.4 7.8 90% 8 76.23 1016.2
07 04:53 N 7 16.09 Fair CLR 10 8.9 93% 9 76.2 1015.8
07 03:53 N 9 16.09 Fair CLR 10 8.9 93% 9 76.17 1015.5
07 02:53 N 7 16.09 Fair CLR 11.1 9.4 89% 76.2 1015.6
07 01:53 N 7 16.09 Overcast OVC080 12.2 10.6 90% 76.2 1015.7
07 00:53 N 11 16.09 Partly Cloudy SCT080 SCT110 12.2 10.6 12.8 11.7 90% 76.17 1015.5
06 23:53 N 6 16.09 Mostly Cloudy BKN110 12.2 10.6 90% 76.2 1015.8
06 22:53 Calm 16.09 Fair CLR 12.2 10 87% 76.23 1016.2
06 21:53 NE 9 16.09 Fair CLR 12.2 10.6 90% 76.17 1015.4
06 20:53 NE 9 16.09 A Few Clouds FEW120 12.2 11.1 93% 76.15 1015.1
06 19:53 N 11 16.09 Mostly Cloudy BKN120 12.2 11.1 93% 76.15 1015.0
06 17:53 NE 15 16.09 Mostly Cloudy SCT013 BKN021 13.3 10.6 84% 76.02 1013.5
06 16:53 N 17 14.48 Overcast FEW012 BKN019 OVC070 13.3 11.1 87% 76.1 1014.2 0.08
06 15:53 N 13 16.09 Light Rain OVC015 13.3 10.6 84% 76.12 1014.7 0.05 0.05
Date Time (cdt) Wind (kph) Vis. (km) Weather Sky Cond. Air Dwpt Max. Min. Relative Humidity Wind Chill (°C) Heat Index (°C) altimeter (cm) sea level (mb) 1 hr 3 hr 6 hr
6 hour
Temperature (ºC) Pressure Precipitation (cm)